Time;durP1;ratioP1;P1;durP2;ratioP2;P2;SDS_P1;SDS_P2;PMS_P1;PMS_P2;Temp;Humidity;BMP_temperature;BMP_pressure;BME280_temperature;BME280_humidity;BME280_pressure;Samples;Min_cycle;Max_cycle;Signal;HPM_P1;HPM_P2
2023/03/25 00:00:16;;;;;;;18.95;3.83;;;9.50;99.90;;;;;;5071901;28;20547;-59
2023/03/25 00:02:49;;;;;;;20.55;3.03;;;9.40;99.90;;;;;;5071758;28;20059;-59
2023/03/25 00:05:17;;;;;;;19.40;2.80;;;10.40;99.90;;;;;;5072037;28;20040;-60
2023/03/25 00:07:44;;;;;;;21.55;3.28;;;9.50;99.90;;;;;;5072059;28;20035;-60
2023/03/25 00:10:12;;;;;;;22.90;3.67;;;9.30;99.90;;;;;;5073982;28;20048;-59
2023/03/25 00:12:38;;;;;;;25.08;3.65;;;9.50;99.90;;;;;;5074223;28;20141;-59
2023/03/25 00:15:09;;;;;;;19.27;2.90;;;9.20;99.90;;;;;;5072535;28;20038;-60
2023/03/25 00:17:37;;;;;;;19.88;3.45;;;9.40;99.90;;;;;;5072847;28;20670;-59
2023/03/25 00:20:08;;;;;;;19.08;3.05;;;9.20;99.90;;;;;;5069815;28;20205;-60
2023/03/25 00:22:39;;;;;;;17.63;3.43;;;9.30;99.90;;;;;;5072309;28;20188;-60
2023/03/25 00:25:07;;;;;;;16.67;2.63;;;9.20;99.90;;;;;;5071994;28;20040;-59
2023/03/25 00:27:33;;;;;;;23.52;3.17;;;9.20;99.90;;;;;;5071202;28;20452;-59
2023/03/25 00:29:59;;;;;;;22.67;3.40;;;9.30;99.90;;;;;;5069621;28;20055;-60
2023/03/25 00:32:28;;;;;;;22.33;3.72;;;9.20;99.90;;;;;;5071365;28;20044;-60
2023/03/25 00:34:54;;;;;;;17.77;3.80;;;9.30;99.90;;;;;;5071443;28;20103;-59
2023/03/25 00:37:20;;;;;;;15.32;2.90;;;9.10;99.90;;;;;;5071482;28;20032;-59
2023/03/25 00:39:46;;;;;;;21.67;3.58;;;9.40;99.90;;;;;;5070662;28;20071;-60
2023/03/25 00:42:16;;;;;;;15.00;3.25;;;9.10;99.90;;;;;;5072399;28;20127;-59
2023/03/25 00:44:42;;;;;;;36.88;5.80;;;9.20;99.90;;;;;;5070931;28;20071;-60
2023/03/25 00:47:10;;;;;;;29.63;4.60;;;9.10;99.90;;;;;;5072041;28;20183;-59
2023/03/25 00:49:36;;;;;;;28.45;3.47;;;9.10;99.90;;;;;;5071036;28;20047;-60
2023/03/25 00:52:03;;;;;;;24.48;3.72;;;9.20;99.90;;;;;;5071239;28;20044;-60
2023/03/25 00:54:28;;;;;;;25.77;3.78;;;9.30;99.90;;;;;;5072917;28;20048;-60
2023/03/25 00:56:55;;;;;;;20.98;3.83;;;8.90;99.90;;;;;;5075536;28;20043;-60
2023/03/25 00:59:20;;;;;;;29.65;4.88;;;8.90;99.90;;;;;;5074076;28;20036;-60
2023/03/25 01:01:47;;;;;;;24.17;4.15;;;8.90;99.90;;;;;;5074138;28;20226;-60
2023/03/25 01:04:15;;;;;;;32.95;3.95;;;8.80;99.90;;;;;;5074832;28;20044;-60
2023/03/25 01:06:42;;;;;;;28.10;5.05;;;8.70;99.90;;;;;;5074989;28;20043;-60
2023/03/25 01:09:10;;;;;;;20.27;3.95;;;9.00;99.90;;;;;;5073929;28;20071;-60
2023/03/25 01:11:37;;;;;;;26.65;3.63;;;8.80;99.90;;;;;;5075081;28;20040;-59
2023/03/25 01:14:05;;;;;;;31.90;3.92;;;8.80;99.90;;;;;;5074057;28;20050;-60
2023/03/25 01:16:31;;;;;;;28.00;5.35;;;8.90;99.90;;;;;;5075574;28;20482;-59
2023/03/25 01:18:57;;;;;;;24.85;4.07;;;8.90;99.90;;;;;;5075804;28;20126;-59
2023/03/25 01:21:23;;;;;;;26.15;3.95;;;8.90;99.90;;;;;;5075174;28;20124;-59
2023/03/25 01:23:49;;;;;;;40.63;6.82;;;9.00;99.90;;;;;;5074050;28;20568;-59
2023/03/25 01:26:15;;;;;;;24.45;4.65;;;8.90;99.90;;;;;;5076342;28;20044;-60
2023/03/25 01:28:42;;;;;;;33.13;4.88;;;8.90;99.90;;;;;;5074929;28;20586;-59
2023/03/25 01:31:10;;;;;;;27.77;5.00;;;9.00;99.90;;;;;;5074938;28;20451;-60
2023/03/25 01:33:36;;;;;;;27.27;3.70;;;8.60;99.90;;;;;;5073993;28;20047;-60
2023/03/25 01:36:02;;;;;;;30.70;4.25;;;8.90;99.90;;;;;;5076064;28;20048;-59
2023/03/25 01:38:29;;;;;;;28.60;4.68;;;9.00;99.90;;;;;;5075598;28;20055;-59
2023/03/25 01:40:56;;;;;;;29.85;5.00;;;8.70;99.90;;;;;;5073919;28;20497;-60
2023/03/25 01:43:22;;;;;;;30.20;4.88;;;8.80;99.90;;;;;;5074217;28;20040;-61
2023/03/25 01:45:49;;;;;;;25.98;4.75;;;9.30;99.90;;;;;;5074276;28;20150;-60
2023/03/25 01:48:24;;;;;;;24.73;4.43;;;7.20;99.90;;;;;;5073319;28;20127;-60
2023/03/25 01:50:57;;;;;;;32.97;4.50;;;8.70;99.90;;;;;;5073604;28;20082;-59
2023/03/25 01:53:27;;;;;;;31.73;3.90;;;7.60;99.90;;;;;;5073128;28;20048;-60
2023/03/25 01:55:53;;;;;;;31.15;5.50;;;10.10;99.90;;;;;;5072969;28;20135;-60
2023/03/25 01:58:20;;;;;;;34.78;6.47;;;8.60;99.90;;;;;;5074191;28;20424;-61
2023/03/25 02:00:49;;;;;;;34.92;4.70;;;8.50;99.90;;;;;;5073793;28;20135;-61
2023/03/25 02:03:19;;;;;;;26.77;4.45;;;8.60;99.90;;;;;;5072804;28;20044;-60
2023/03/25 02:06:05;;;;;;;23.30;4.78;;;8.70;99.90;;;;;;5073154;28;20048;-60
2023/03/25 02:08:38;;;;;;;28.98;4.57;;;8.50;99.90;;;;;;5073616;28;20117;-61
2023/03/25 02:11:09;;;;;;;29.73;4.20;;;8.60;99.90;;;;;;5073128;28;20040;-61
2023/03/25 02:13:38;;;;;;;30.85;4.95;;;8.50;99.90;;;;;;5073588;28;20480;-60
2023/03/25 02:16:25;;;;;;;24.83;4.13;;;8.60;99.90;;;;;;5073500;28;20118;-61
2023/03/25 02:19:03;;;;;;;32.72;5.18;;;8.60;99.90;;;;;;5072763;28;20059;-61
2023/03/25 02:21:45;;;;;;;34.85;5.80;;;8.40;99.90;;;;;;5073454;28;20040;-61
2023/03/25 02:24:18;;;;;;;28.02;4.13;;;8.50;99.90;;;;;;5072452;28;20050;-61
2023/03/25 02:26:59;;;;;;;26.77;4.20;;;8.70;99.90;;;;;;5072361;28;20184;-61
2023/03/25 02:29:49;;;;;;;28.13;5.30;;;8.70;99.90;;;;;;5073753;28;20055;-61
2023/03/25 02:32:33;;;;;;;28.25;3.92;;;8.70;99.90;;;;;;5069981;28;20082;-61
2023/03/25 02:35:48;;;;;;;34.65;4.75;;;8.60;99.90;;;;;;5072326;28;20040;-61
2023/03/25 02:38:42;;;;;;;39.22;5.78;;;8.60;99.90;;;;;;5071883;28;20048;-60
2023/03/25 02:41:35;;;;;;;31.38;4.72;;;8.60;99.90;;;;;;5073256;28;20059;-61
2023/03/25 02:44:15;;;;;;;30.60;4.90;;;8.70;99.90;;;;;;5074222;28;20113;-61
2023/03/25 02:46:47;;;;;;;32.47;6.22;;;8.50;99.90;;;;;;5074820;28;20059;-61
2023/03/25 02:49:20;;;;;;;;;;;8.60;99.90;;;;;;5074520;28;20040;-61
2023/03/25 02:51:50;;;;;;;;;;;8.70;99.90;;;;;;5074843;28;19935;-61
2023/03/25 02:54:17;;;;;;;30.73;5.13;;;8.70;99.90;;;;;;5074126;28;20299;-61
2023/03/25 02:56:47;;;;;;;26.20;5.15;;;8.70;99.90;;;;;;5074139;28;20142;-61
2023/03/25 02:59:14;;;;;;;27.88;5.38;;;8.70;99.90;;;;;;5073663;28;20063;-61
2023/03/25 03:01:40;;;;;;;28.33;5.03;;;8.70;99.90;;;;;;5073420;28;20043;-60
2023/03/25 03:04:06;;;;;;;25.38;4.20;;;8.70;99.90;;;;;;5073491;28;20082;-60
2023/03/25 03:06:40;;;;;;;23.73;3.83;;;8.80;99.90;;;;;;5073995;28;20048;-61
2023/03/25 03:09:24;;;;;;;25.75;5.53;;;8.90;99.90;;;;;;5073660;28;20040;-61
2023/03/25 03:12:29;;;;;;;28.27;5.25;;;8.70;99.90;;;;;;5072743;28;20081;-61
2023/03/25 03:15:09;;;;;;;29.48;4.85;;;8.50;99.90;;;;;;5072157;28;20048;-61
2023/03/25 03:17:40;;;;;;;25.63;4.40;;;8.70;99.90;;;;;;5072835;28;20113;-61
2023/03/25 03:20:41;;;;;;;28.70;4.47;;;8.60;99.90;;;;;;5072747;28;20671;-61
2023/03/25 03:23:32;;;;;;;36.88;6.13;;;8.70;99.90;;;;;;5071501;28;20134;-61
2023/03/25 03:26:21;;;;;;;22.13;3.60;;;9.70;99.90;;;;;;5071529;28;20652;-61
2023/03/25 03:29:07;;;;;;;23.88;4.63;;;8.80;99.90;;;;;;5071355;28;20052;-61
2023/03/25 03:31:59;;;;;;;35.30;6.03;;;8.70;99.90;;;;;;5071225;28;20101;-61
2023/03/25 03:34:31;;;;;;;28.42;4.22;;;7.70;99.90;;;;;;5071279;28;20046;-62
2023/03/25 03:36:58;;;;;;;27.45;5.57;;;8.70;99.90;;;;;;5071636;28;20380;-60
2023/03/25 03:39:34;;;;;;;27.52;4.50;;;8.80;99.90;;;;;;5070587;28;20456;-61
2023/03/25 03:42:09;;;;;;;35.25;5.55;;;8.80;99.90;;;;;;5071763;28;20071;-61
2023/03/25 03:44:38;;;;;;;27.92;5.80;;;8.80;99.90;;;;;;5070542;28;20048;-61
2023/03/25 03:47:18;;;;;;;31.35;5.53;;;8.80;99.90;;;;;;5071401;28;20047;-61
2023/03/25 03:49:51;;;;;;;30.20;5.13;;;8.90;99.90;;;;;;5071958;28;20075;-61
2023/03/25 03:52:24;;;;;;;25.33;4.65;;;8.60;99.90;;;;;;5070125;28;20090;-61
2023/03/25 03:55:01;;;;;;;24.60;4.18;;;8.70;99.90;;;;;;5071515;28;20697;-61
2023/03/25 03:57:39;;;;;;;27.20;4.53;;;8.70;99.90;;;;;;5071810;28;20341;-61
2023/03/25 04:00:16;;;;;;;33.10;4.22;;;8.60;99.90;;;;;;5073113;28;20044;-61
2023/03/25 04:02:51;;;;;;;32.38;5.07;;;8.50;99.90;;;;;;5071955;28;20044;-61
2023/03/25 04:05:19;;;;;;;20.02;4.05;;;8.60;99.90;;;;;;5071418;28;20117;-61
2023/03/25 04:07:53;;;;;;;26.63;4.55;;;9.90;99.90;;;;;;5072393;28;20036;-61
2023/03/25 04:10:38;;;;;;;34.22;4.57;;;8.70;99.90;;;;;;5072435;28;20495;-61
2023/03/25 04:13:09;;;;;;;25.60;4.40;;;8.80;99.90;;;;;;5072990;28;20523;-62
2023/03/25 04:15:36;;;;;;;26.70;4.27;;;8.80;99.90;;;;;;5071758;28;20146;-61
2023/03/25 04:18:02;;;;;;;35.20;5.45;;;8.50;99.90;;;;;;5073390;28;20074;-62
2023/03/25 04:20:32;;;;;;;29.75;4.88;;;8.60;99.90;;;;;;5073515;28;20533;-61
2023/03/25 04:22:59;;;;;;;26.05;4.97;;;8.60;99.90;;;;;;5072421;28;20131;-61
2023/03/25 04:25:25;;;;;;;27.50;4.60;;;8.70;99.90;;;;;;5071381;28;20036;-61
2023/03/25 04:27:57;;;;;;;21.50;3.90;;;8.60;99.90;;;;;;5070860;28;20047;-60
2023/03/25 04:30:25;;;;;;;24.90;4.38;;;8.90;99.90;;;;;;5074019;28;20154;-61
2023/03/25 04:32:51;;;;;;;30.45;5.97;;;8.70;99.90;;;;;;5074848;28;20465;-60
2023/03/25 04:35:18;;;;;;;26.92;5.20;;;8.80;99.90;;;;;;5075899;28;20052;-61
2023/03/25 04:37:52;;;;;;;29.67;4.85;;;8.80;99.90;;;;;;5076261;28;20139;-61
2023/03/25 04:40:18;;;;;;;25.60;4.10;;;8.70;99.90;;;;;;5076174;28;20040;-61
2023/03/25 04:42:47;;;;;;;27.77;4.25;;;8.60;99.90;;;;;;5075492;28;20050;-61
2023/03/25 04:45:15;;;;;;;29.40;4.90;;;8.70;99.90;;;;;;5075567;28;20524;-61
2023/03/25 04:47:45;;;;;;;29.15;4.90;;;8.60;99.90;;;;;;5075400;28;20575;-61
2023/03/25 04:50:21;;;;;;;24.05;3.80;;;8.70;99.90;;;;;;5074681;28;20500;-61
2023/03/25 04:52:51;;;;;;;26.13;4.13;;;8.80;99.90;;;;;;5075646;28;20048;-61
2023/03/25 04:55:19;;;;;;;31.77;5.22;;;8.60;99.90;;;;;;5075944;28;20040;-61
2023/03/25 04:57:49;;;;;;;22.38;5.32;;;8.60;99.90;;;;;;5074648;28;20471;-61
2023/03/25 05:00:23;;;;;;;24.92;3.78;;;8.60;99.90;;;;;;5089421;28;20072;-61
2023/03/25 05:02:52;;;;;;;34.20;4.53;;;9.60;99.90;;;;;;5075580;28;20479;-61
2023/03/25 05:05:21;;;;;;;31.70;4.50;;;8.50;99.90;;;;;;5075942;28;20130;-61
2023/03/25 05:07:52;;;;;;;29.58;4.60;;;8.80;99.90;;;;;;5074065;28;20349;-61
2023/03/25 05:10:21;;;;;;;27.75;4.75;;;8.60;99.90;;;;;;5076389;28;20151;-61
2023/03/25 05:12:47;;;;;;;29.63;5.25;;;8.60;99.90;;;;;;5076469;28;20044;-61
2023/03/25 05:15:15;;;;;;;30.05;4.13;;;9.20;99.90;;;;;;5076581;28;20077;-61
2023/03/25 05:17:43;;;;;;;26.95;5.78;;;8.70;99.90;;;;;;5076409;28;20036;-61
2023/03/25 05:20:10;;;;;;;25.05;4.97;;;8.70;99.90;;;;;;5076416;28;20036;-61
2023/03/25 05:22:36;;;;;;;23.65;4.28;;;8.70;99.90;;;;;;5075447;28;20048;-61
2023/03/25 05:25:05;;;;;;;22.17;4.07;;;8.60;99.90;;;;;;5075863;28;20738;-61
2023/03/25 05:27:32;;;;;;;35.25;5.15;;;8.50;99.90;;;;;;5075909;28;20062;-61
2023/03/25 05:29:57;;;;;;;33.38;5.75;;;8.40;99.90;;;;;;5076071;28;20048;-61
2023/03/25 05:32:34;;;;;;;29.42;4.30;;;8.70;99.90;;;;;;5074105;28;20061;-61
2023/03/25 05:35:01;;;;;;;30.75;5.00;;;8.70;99.90;;;;;;5073753;28;20089;-61
2023/03/25 05:37:27;;;;;;;22.00;4.18;;;8.60;99.90;;;;;;5074650;28;20040;-61
2023/03/25 05:39:53;;;;;;;34.30;6.35;;;8.60;99.90;;;;;;5073112;28;20048;-61
2023/03/25 05:42:22;;;;;;;33.47;5.00;;;8.80;99.90;;;;;;5074153;28;20052;-61
2023/03/25 05:44:52;;;;;;;29.30;4.72;;;8.60;99.90;;;;;;5074243;28;20350;-61
2023/03/25 05:47:22;;;;;;;29.27;5.38;;;8.60;99.90;;;;;;5072724;28;20047;-61
2023/03/25 05:49:49;;;;;;;26.63;5.38;;;8.50;99.90;;;;;;5073373;28;20123;-61
2023/03/25 05:52:17;;;;;;;28.23;4.90;;;8.40;99.90;;;;;;5074147;28;20047;-61
2023/03/25 05:54:45;;;;;;;32.97;6.03;;;8.40;99.90;;;;;;5073150;28;20082;-61
2023/03/25 05:57:12;;;;;;;30.10;4.50;;;8.50;99.90;;;;;;5074330;28;20064;-61
2023/03/25 05:59:39;;;;;;;27.67;4.65;;;8.60;99.90;;;;;;5074032;28;20552;-61
2023/03/25 06:02:14;;;;;;;34.53;6.53;;;8.40;99.90;;;;;;5073607;28;20032;-61
2023/03/25 06:04:40;;;;;;;29.65;5.40;;;8.70;99.90;;;;;;5073644;28;20132;-62
2023/03/25 06:07:18;;;;;;;31.35;4.70;;;8.50;99.90;;;;;;5073872;28;20531;-62
2023/03/25 06:09:48;;;;;;;27.08;4.28;;;9.30;99.90;;;;;;5073286;28;20055;-61
2023/03/25 06:12:19;;;;;;;31.80;5.65;;;8.70;99.90;;;;;;5071623;28;20035;-62
2023/03/25 06:14:46;;;;;;;26.53;4.77;;;8.70;99.90;;;;;;5074028;28;20043;-61
2023/03/25 06:17:13;;;;;;;35.40;7.65;;;8.60;99.90;;;;;;5072494;28;20036;-62
2023/03/25 06:19:39;;;;;;;30.92;6.00;;;8.70;99.90;;;;;;5074350;28;20047;-60
2023/03/25 06:22:08;;;;;;;27.90;4.97;;;8.50;99.90;;;;;;5073587;28;20051;-62
2023/03/25 06:24:37;;;;;;;28.20;5.80;;;8.50;99.90;;;;;;5073417;28;20040;-61
2023/03/25 06:27:08;;;;;;;25.20;4.07;;;8.40;99.90;;;;;;5072979;28;20048;-61
2023/03/25 06:29:38;;;;;;;26.08;4.65;;;8.30;99.90;;;;;;5073714;28;20131;-61
2023/03/25 06:32:04;;;;;;;26.73;4.13;;;8.40;99.90;;;;;;5073990;28;20093;-61
2023/03/25 06:34:33;;;;;;;27.15;5.07;;;8.20;99.90;;;;;;5074220;28;20636;-60
2023/03/25 06:37:00;;;;;;;27.27;4.68;;;8.30;99.90;;;;;;5074509;28;20043;-60
2023/03/25 06:39:30;;;;;;;26.95;4.25;;;8.20;99.90;;;;;;5074238;28;20036;-61
2023/03/25 06:41:59;;;;;;;23.98;4.00;;;8.20;99.90;;;;;;5073092;28;20105;-60
2023/03/25 06:44:26;;;;;;;30.95;4.55;;;8.40;99.90;;;;;;5072618;28;20032;-61
2023/03/25 06:46:51;;;;;;;38.20;4.53;;;8.30;99.90;;;;;;5074175;28;20599;-61
2023/03/25 06:49:17;;;;;;;24.63;4.20;;;8.40;99.90;;;;;;5071923;28;20043;-61
2023/03/25 06:51:44;;;;;;;23.10;4.47;;;8.60;99.90;;;;;;5071898;28;20040;-60
2023/03/25 06:54:10;;;;;;;25.90;5.00;;;9.10;99.90;;;;;;5087549;28;20101;-61
2023/03/25 06:56:35;;;;;;;27.40;5.50;;;8.70;99.90;;;;;;5072115;28;20640;-62
2023/03/25 06:59:01;;;;;;;22.63;3.72;;;8.80;99.90;;;;;;5071836;28;20044;-61
2023/03/25 07:01:27;;;;;;;21.08;3.70;;;8.80;99.90;;;;;;5072286;28;20055;-61
2023/03/25 07:03:53;;;;;;;21.95;4.22;;;8.90;99.90;;;;;;5072104;28;20146;-60
2023/03/25 07:06:23;;;;;;;23.92;4.18;;;8.90;99.90;;;;;;5071759;28;20040;-60
2023/03/25 07:08:49;;;;;;;30.02;4.35;;;9.00;99.90;;;;;;5071749;28;20040;-60
2023/03/25 07:11:18;;;;;;;15.90;2.90;;;8.90;99.90;;;;;;5072593;28;20140;-59
2023/03/25 07:13:44;;;;;;;21.05;5.05;;;8.90;99.90;;;;;;5071436;28;20445;-60
2023/03/25 07:16:10;;;;;;;29.08;4.65;;;10.30;99.90;;;;;;5071941;28;20151;-59
2023/03/25 07:18:36;;;;;;;22.05;4.25;;;8.70;99.90;;;;;;5071134;28;20051;-59
2023/03/25 07:21:02;;;;;;;30.42;4.10;;;8.70;99.90;;;;;;5071592;28;20051;-60
2023/03/25 07:23:27;;;;;;;22.67;3.80;;;9.30;99.90;;;;;;5072037;28;20072;-59
2023/03/25 07:25:55;;;;;;;26.02;4.38;;;8.70;99.90;;;;;;5070930;28;20446;-59
2023/03/25 07:28:21;;;;;;;26.20;3.42;;;8.80;99.90;;;;;;5070209;28;20504;-59
2023/03/25 07:30:47;;;;;;;26.63;4.05;;;8.70;99.90;;;;;;5071803;28;20054;-59
2023/03/25 07:33:13;;;;;;;25.08;3.38;;;8.70;99.90;;;;;;5071655;28;20044;-59
2023/03/25 07:35:39;;;;;;;20.70;2.60;;;8.60;99.90;;;;;;5071333;28;20039;-58
2023/03/25 07:38:05;;;;;;;13.35;2.90;;;8.40;99.90;;;;;;5070768;28;20473;-58
2023/03/25 07:40:30;;;;;;;27.27;4.40;;;8.40;99.90;;;;;;5071677;28;20044;-57
2023/03/25 07:42:56;;;;;;;20.13;3.28;;;8.40;99.90;;;;;;5072124;28;20044;-58
2023/03/25 07:45:22;;;;;;;21.52;3.50;;;8.30;99.90;;;;;;5072731;28;20326;-58
2023/03/25 07:47:49;;;;;;;20.45;3.33;;;8.30;99.90;;;;;;5072125;28;20412;-58
2023/03/25 07:50:18;;;;;;;20.75;3.75;;;8.60;99.90;;;;;;5071591;28;21232;-59
2023/03/25 07:52:44;;;;;;;22.90;2.72;;;8.30;99.90;;;;;;5072615;28;20085;-58
2023/03/25 07:55:11;;;;;;;17.10;3.38;;;8.50;99.90;;;;;;5071863;28;20063;-59
2023/03/25 07:57:36;;;;;;;14.63;2.67;;;8.50;99.90;;;;;;5072046;28;20114;-58
2023/03/25 08:00:04;;;;;;;22.52;3.15;;;8.30;99.90;;;;;;5073639;28;20853;-59
2023/03/25 08:02:30;;;;;;;18.27;2.25;;;8.40;99.90;;;;;;5072610;28;20112;-58
2023/03/25 08:04:56;;;;;;;16.58;3.13;;;8.40;99.90;;;;;;5074155;28;21046;-58
2023/03/25 08:07:22;;;;;;;20.52;3.15;;;8.40;99.90;;;;;;5076190;28;20036;-58
2023/03/25 08:09:47;;;;;;;14.20;2.40;;;8.50;99.90;;;;;;5077689;28;20079;-60
2023/03/25 08:12:14;;;;;;;16.60;2.55;;;8.20;99.90;;;;;;5076682;28;20131;-58
2023/03/25 08:14:39;;;;;;;20.70;4.07;;;8.30;99.90;;;;;;5076564;28;20126;-58
2023/03/25 08:17:06;;;;;;;21.92;3.78;;;8.20;99.90;;;;;;5075722;28;20047;-58
2023/03/25 08:19:32;;;;;;;28.83;3.95;;;8.40;99.90;;;;;;5078920;28;20052;-57
2023/03/25 08:21:58;;;;;;;19.80;3.78;;;9.40;99.90;;;;;;5090632;28;20090;-58
2023/03/25 08:24:25;;;;;;;23.83;3.92;;;8.40;99.90;;;;;;5073895;28;20109;-57
2023/03/25 08:26:52;;;;;;;16.73;2.72;;;8.50;99.90;;;;;;5075502;28;20079;-57
2023/03/25 08:29:19;;;;;;;22.73;3.47;;;8.80;99.90;;;;;;5074932;28;20189;-57
2023/03/25 08:31:45;;;;;;;21.77;3.95;;;8.80;99.90;;;;;;5076096;28;20134;-57
2023/03/25 08:34:12;;;;;;;27.85;3.53;;;8.50;99.90;;;;;;5074204;28;20040;-57
2023/03/25 08:36:38;;;;;;;22.98;3.45;;;9.40;99.90;;;;;;5074972;28;20665;-57
2023/03/25 08:39:08;;;;;;;20.02;3.95;;;8.60;99.90;;;;;;5075845;28;20047;-57
2023/03/25 08:41:36;;;;;;;23.45;3.28;;;8.50;99.90;;;;;;5075316;28;20044;-58
2023/03/25 08:44:02;;;;;;;25.38;4.45;;;8.70;99.90;;;;;;5076195;28;20051;-58
2023/03/25 08:46:28;;;;;;;22.17;3.42;;;8.90;99.90;;;;;;5074749;28;20055;-58
2023/03/25 08:48:54;;;;;;;16.33;2.80;;;9.00;99.90;;;;;;5075262;28;20180;-58
2023/03/25 08:51:20;;;;;;;20.92;4.18;;;9.10;99.90;;;;;;5073982;28;20057;-57
2023/03/25 08:53:46;;;;;;;15.57;2.85;;;9.00;99.90;;;;;;5074739;28;20044;-57
2023/03/25 08:56:12;;;;;;;23.75;5.15;;;9.00;99.90;;;;;;5075135;28;20035;-58
2023/03/25 08:58:38;;;;;;;21.60;3.75;;;9.10;99.90;;;;;;5075281;28;20047;-58
2023/03/25 09:01:04;;;;;;;25.95;3.70;;;10.60;99.90;;;;;;5075374;28;20044;-57
2023/03/25 09:03:30;;;;;;;19.98;4.57;;;9.30;99.90;;;;;;5075497;28;20048;-58
2023/03/25 09:05:55;;;;;;;22.83;3.95;;;9.50;99.90;;;;;;5076288;28;20043;-58
2023/03/25 09:08:22;;;;;;;19.13;3.80;;;10.10;99.90;;;;;;5076658;28;20047;-57
2023/03/25 09:10:47;;;;;;;21.92;2.75;;;10.20;99.90;;;;;;5076350;28;20040;-57
2023/03/25 09:13:13;;;;;;;19.75;3.53;;;10.30;99.90;;;;;;5077535;28;20036;-57
2023/03/25 09:15:39;;;;;;;17.75;2.40;;;10.60;99.90;;;;;;5077099;28;20226;-57
2023/03/25 09:18:05;;;;;;;14.85;3.00;;;10.60;99.90;;;;;;5076181;28;20063;-58
2023/03/25 09:20:31;;;;;;;21.80;3.47;;;10.70;99.90;;;;;;5076467;28;20047;-58
2023/03/25 09:22:57;;;;;;;17.75;2.60;;;10.60;99.90;;;;;;5076297;28;20086;-58
2023/03/25 09:25:23;;;;;;;21.98;3.00;;;11.00;99.90;;;;;;5077246;28;20093;-58
2023/03/25 09:27:49;;;;;;;22.73;4.07;;;11.00;99.90;;;;;;5075629;28;20123;-58
2023/03/25 09:30:15;;;;;;;17.77;3.10;;;11.30;99.90;;;;;;5074019;28;20058;-58
2023/03/25 09:32:40;;;;;;;20.80;3.47;;;11.20;99.90;;;;;;5076588;28;20126;-58
2023/03/25 09:35:07;;;;;;;17.88;2.75;;;9.80;99.90;;;;;;5074944;28;20492;-59
2023/03/25 09:37:33;;;;;;;17.33;2.55;;;10.80;99.90;;;;;;5074683;28;20097;-58
2023/03/25 09:39:59;;;;;;;22.75;3.30;;;10.80;99.90;;;;;;5074897;28;20040;-58
2023/03/25 09:42:24;;;;;;;19.42;3.10;;;10.70;99.90;;;;;;5075588;28;20040;-58
2023/03/25 09:45:11;;;;;;;19.10;3.17;;;10.70;99.90;;;;;;5075036;28;20082;-58
2023/03/25 09:47:38;;;;;;;21.60;3.13;;;10.60;99.90;;;;;;5074236;28;20043;-58
2023/03/25 09:50:10;;;;;;;22.95;3.78;;;10.80;99.90;;;;;;5074333;28;20040;-58
2023/03/25 09:53:03;;;;;;;18.83;3.80;;;10.60;99.90;;;;;;5074380;28;20032;-58
2023/03/25 09:55:33;;;;;;;16.98;3.63;;;10.40;99.90;;;;;;5074761;28;20200;-58
2023/03/25 09:58:23;;;;;;;19.13;3.47;;;10.10;99.90;;;;;;5074274;28;20044;-58
2023/03/25 10:01:26;;;;;;;23.52;2.70;;;10.00;99.90;;;;;;5074502;28;20048;-58
2023/03/25 10:04:17;;;;;;;16.35;3.47;;;10.00;99.90;;;;;;4995742;28;20246;-58
2023/03/25 10:07:09;;;;;;;19.80;3.55;;;10.00;99.90;;;;;;5072282;28;20345;-58
2023/03/25 10:09:37;;;;;;;17.60;2.78;;;10.00;99.90;;;;;;5074317;28;20054;-58
2023/03/25 10:12:34;;;;;;;20.52;3.13;;;9.90;99.90;;;;;;5073814;28;20093;-59
2023/03/25 10:15:30;;;;;;;21.08;3.35;;;9.90;99.90;;;;;;5074621;28;20040;-59
2023/03/25 10:18:06;;;;;;;14.02;2.85;;;9.70;99.90;;;;;;5074285;28;20356;-59
2023/03/25 10:20:38;;;;;;;17.77;3.00;;;9.90;99.90;;;;;;5073648;28;20066;-59
2023/03/25 10:23:11;;;;;;;17.05;2.90;;;10.10;99.90;;;;;;5072963;28;20442;-59
2023/03/25 10:25:42;;;;;;;19.27;2.88;;;10.20;99.90;;;;;;5075560;28;20063;-59
2023/03/25 10:28:17;;;;;;;20.42;2.90;;;10.30;99.90;;;;;;5074160;28;20583;-59
2023/03/25 10:30:47;;;;;;;16.98;3.75;;;10.60;99.90;;;;;;5075777;28;20067;-59
2023/03/25 10:33:40;;;;;;;14.20;3.25;;;10.30;99.90;;;;;;5075100;28;20064;-59
2023/03/25 10:36:16;;;;;;;21.33;2.90;;;10.50;99.90;;;;;;5069412;28;20135;-59
2023/03/25 10:38:45;;;;;;;19.40;2.92;;;10.30;99.90;;;;;;5074544;28;20036;-59
2023/03/25 10:41:27;;;;;;;18.77;3.42;;;10.10;99.90;;;;;;5074227;28;20056;-59
2023/03/25 10:43:53;;;;;;;20.27;4.07;;;10.30;99.90;;;;;;5075317;28;20052;-59
2023/03/25 10:46:30;;;;;;;21.67;3.40;;;10.20;99.90;;;;;;5089968;28;20048;-59
2023/03/25 10:48:56;;;;;;;26.92;5.13;;;10.20;99.90;;;;;;5073320;28;21700;-59
2023/03/25 10:51:29;;;;;;;20.27;4.63;;;10.20;99.90;;;;;;5072844;28;20044;-59
2023/03/25 10:53:55;;;;;;;14.43;2.60;;;10.40;99.90;;;;;;5073008;28;20052;-59
2023/03/25 10:56:25;;;;;;;16.40;3.42;;;10.70;99.90;;;;;;5073687;28;20032;-59
2023/03/25 10:58:56;;;;;;;20.80;3.67;;;10.70;99.90;;;;;;5073345;28;20066;-59
2023/03/25 11:01:35;;;;;;;16.67;3.15;;;10.80;99.90;;;;;;5073808;28;20048;-59
2023/03/25 11:04:06;;;;;;;14.60;2.97;;;10.80;99.90;;;;;;5072340;28;20079;-59
2023/03/25 11:06:41;;;;;;;18.88;3.15;;;11.00;99.90;;;;;;5072588;28;20079;-59
2023/03/25 11:09:06;;;;;;;14.50;2.88;;;11.10;99.90;;;;;;5072523;28;20048;-59
2023/03/25 11:11:33;;;;;;;13.65;2.40;;;11.20;99.90;;;;;;5073456;28;20044;-59
2023/03/25 11:14:00;;;;;;;18.27;3.53;;;11.30;99.90;;;;;;5072355;28;20050;-59
2023/03/25 11:16:29;;;;;;;16.75;2.70;;;11.60;99.90;;;;;;5073624;28;20123;-59
2023/03/25 11:18:59;;;;;;;16.45;2.95;;;11.40;99.90;;;;;;5072260;28;20046;-59
2023/03/25 11:21:29;;;;;;;19.00;2.60;;;11.40;99.90;;;;;;5073405;28;20436;-59
2023/03/25 11:23:58;;;;;;;14.02;2.60;;;11.30;99.90;;;;;;5072029;28;20136;-59
2023/03/25 11:26:32;;;;;;;14.10;2.40;;;11.30;99.90;;;;;;5073209;28;20032;-59
2023/03/25 11:29:08;;;;;;;15.50;2.33;;;11.10;99.90;;;;;;5072250;28;20044;-59
2023/03/25 11:31:36;;;;;;;14.68;2.20;;;10.10;99.90;;;;;;5072040;28;20048;-59
2023/03/25 11:34:17;;;;;;;12.52;2.40;;;10.90;99.90;;;;;;5070696;28;20098;-59
2023/03/25 11:36:56;;;;;;;15.50;3.15;;;11.10;99.90;;;;;;5073958;28;20039;-59
2023/03/25 11:39:22;;;;;;;14.98;2.70;;;11.30;99.90;;;;;;5073600;28;20039;-60
2023/03/25 11:41:48;;;;;;;19.80;4.07;;;11.30;99.90;;;;;;5074662;28;20054;-59
2023/03/25 11:44:30;;;;;;;17.42;2.50;;;11.30;99.90;;;;;;5073313;28;20237;-59
2023/03/25 11:47:05;;;;;;;16.25;2.55;;;11.30;99.90;;;;;;5074056;28;20465;-59
2023/03/25 11:49:36;;;;;;;13.82;2.97;;;11.30;99.90;;;;;;5073379;28;20040;-59
2023/03/25 11:52:26;;;;;;;13.25;2.65;;;11.60;99.90;;;;;;5073548;28;20044;-59
2023/03/25 11:54:54;;;;;;;16.77;2.50;;;9.20;99.90;;;;;;5073037;28;20650;-59
2023/03/25 11:57:26;;;;;;;14.02;2.20;;;11.40;99.90;;;;;;5073316;28;20496;-59
2023/03/25 12:00:12;;;;;;;14.88;2.75;;;11.20;99.90;;;;;;5073290;28;20773;-59
2023/03/25 12:02:39;;;;;;;15.63;3.20;;;11.90;99.90;;;;;;5086328;28;20692;-58
2023/03/25 12:05:13;;;;;;;13.13;2.53;;;12.00;99.90;;;;;;5071208;28;20092;-58
2023/03/25 12:07:43;;;;;;;16.67;2.70;;;12.10;99.90;;;;;;5071828;28;20036;-59
2023/03/25 12:10:38;;;;;;;14.25;2.67;;;12.30;99.90;;;;;;5071555;28;20079;-58
2023/03/25 12:13:03;;;;;;;15.05;2.33;;;12.50;99.90;;;;;;5072596;28;20055;-58
2023/03/25 12:15:49;;;;;;;14.68;2.30;;;12.30;99.90;;;;;;5072760;28;20032;-58
2023/03/25 12:18:24;;;;;;;16.55;2.35;;;12.50;99.90;;;;;;5070905;28;20044;-58
2023/03/25 12:21:17;;;;;;;18.17;2.92;;;12.60;99.90;;;;;;5072852;28;20044;-58
2023/03/25 12:23:52;;;;;;;12.07;2.35;;;12.60;99.90;;;;;;5071485;28;20730;-58
2023/03/25 12:26:37;;;;;;;12.60;2.38;;;12.30;99.90;;;;;;5070871;28;20119;-58
2023/03/25 12:29:14;;;;;;;15.50;2.55;;;12.50;99.90;;;;;;5071031;28;20053;-58
2023/03/25 12:32:04;;;;;;;15.82;2.60;;;12.50;99.90;;;;;;5071161;28;20164;-58
2023/03/25 12:35:07;;;;;;;12.98;2.47;;;12.50;99.90;;;;;;5071350;28;20096;-58
2023/03/25 12:37:59;;;;;;;;;;;12.00;99.90;;;;;;5072747;28;20040;-58
2023/03/25 12:40:46;;;;;;;16.33;2.45;;;12.10;99.90;;;;;;5054626;28;19930;-58
2023/03/25 12:43:34;;;;;;;17.70;3.25;;;12.00;99.90;;;;;;5071250;28;20036;-58
2023/03/25 12:46:42;;;;;;;16.80;3.67;;;11.70;99.90;;;;;;5072649;28;20069;-58
2023/03/25 12:49:45;;;;;;;10.82;2.13;;;9.50;99.90;;;;;;5070722;28;20617;-58
2023/03/25 12:52:41;;;;;;;11.55;2.35;;;11.50;99.90;;;;;;5076518;28;20117;-58
2023/03/25 12:55:36;;;;;;;13.27;3.22;;;11.30;99.90;;;;;;5075797;28;20040;-58
2023/03/25 12:58:04;;;;;;;11.63;2.20;;;11.30;99.90;;;;;;5075799;28;20028;-58
2023/03/25 13:00:53;;;;;;;10.30;2.53;;;11.10;99.90;;;;;;5074159;28;20037;-58
2023/03/25 13:04:02;;;;;;;17.80;2.72;;;10.80;99.90;;;;;;5075469;28;20063;-58
2023/03/25 13:06:51;;;;;;;13.13;2.55;;;10.80;99.90;;;;;;5074347;28;20515;-57
2023/03/25 13:09:23;;;;;;;12.82;2.50;;;10.80;99.90;;;;;;5090562;28;20036;-58